Time;durP1;ratioP1;P1;durP2;ratioP2;P2;SDS_P1;SDS_P2;PMS_P1;PMS_P2;Temp;Humidity;BMP_temperature;BMP_pressure;BME280_temperature;BME280_humidity;BME280_pressure;Samples;Min_cycle;Max_cycle;Signal;HPM_P1;HPM_P2
2021/10/06 00:01:32;;;;;;;26.68;19.75;;;;;;;16.36;71.92;100450.55;1712477;82;20870;-75
2021/10/06 00:03:56;;;;;;;28.57;21.00;;;;;;;16.32;71.98;100458.12;1710757;82;20935;-75
2021/10/06 00:06:22;;;;;;;27.57;20.37;;;;;;;16.29;72.03;100463.01;1711001;82;20961;-75
2021/10/06 00:08:48;;;;;;;25.50;19.73;;;;;;;16.27;72.14;100471.81;1718946;82;20842;-75
2021/10/06 00:11:14;;;;;;;25.10;19.07;;;;;;;16.22;72.18;100480.67;1714422;82;21009;-75
2021/10/06 00:13:40;;;;;;;22.57;17.83;;;;;;;16.18;72.17;100473.04;1706654;82;21651;-75
2021/10/06 00:16:09;;;;;;;26.42;19.67;;;;;;;16.14;72.33;100476.69;1709860;82;21089;-75
2021/10/06 00:18:42;;;;;;;22.80;17.02;;;;;;;16.14;72.40;100476.69;1706226;82;21056;-75
2021/10/06 00:21:08;;;;;;;26.23;18.37;;;;;;;16.12;72.39;100477.20;1710471;82;21074;-75
2021/10/06 00:23:35;;;;;;;22.30;17.50;;;;;;;16.09;72.42;100472.14;1707180;82;21153;-75
2021/10/06 00:26:05;;;;;;;19.10;15.00;;;;;;;16.05;72.48;100479.25;1701984;82;21077;-75
2021/10/06 00:28:32;;;;;;;16.00;12.98;;;;;;;16.01;72.48;100468.55;1666035;84;21065;-75
2021/10/06 00:30:58;;;;;;;18.15;13.15;;;;;;;15.96;72.47;100467.87;1629461;86;21166;-75
2021/10/06 00:33:28;;;;;;;16.65;13.55;;;;;;;15.91;72.57;100457.23;1669978;84;21123;-75
2021/10/06 00:35:56;;;;;;;18.55;13.20;;;;;;;15.87;72.65;100463.03;1664644;84;21088;-75
2021/10/06 00:38:24;;;;;;;16.32;12.18;;;;;;;15.85;72.67;100462.24;1645550;85;21015;-75
2021/10/06 00:40:52;;;;;;;15.55;12.45;;;;;;;15.80;72.70;100459.81;1668518;84;21331;-75
2021/10/06 00:43:18;;;;;;;14.23;12.03;;;;;;;15.77;72.82;100456.48;1656952;85;21166;-75
2021/10/06 00:45:44;;;;;;;13.07;11.33;;;;;;;15.75;72.86;100442.66;1665975;85;21095;-75
2021/10/06 00:48:10;;;;;;;14.33;11.63;;;;;;;15.70;72.87;100438.08;1662005;85;21426;-75
2021/10/06 00:50:37;;;;;;;13.63;11.37;;;;;;;15.65;72.93;100438.72;1662284;85;21074;-75
2021/10/06 00:53:05;;;;;;;13.72;11.45;;;;;;;15.61;72.97;100453.63;1693981;83;21561;-75
2021/10/06 00:55:31;;;;;;;12.03;10.75;;;;;;;15.59;73.04;100463.30;1704727;83;21406;-75
2021/10/06 00:57:57;;;;;;;15.15;11.30;;;;;;;15.54;73.05;100469.96;1697282;83;20887;-75
2021/10/06 01:00:23;;;;;;;12.47;11.17;;;;;;;15.52;73.09;100489.17;1682992;83;20982;-75
2021/10/06 01:02:52;;;;;;;11.50;10.35;;;;;;;15.49;73.16;100493.20;1681864;83;20922;-75
2021/10/06 01:05:21;;;;;;;11.68;10.28;;;;;;;15.43;73.12;100502.55;1694741;83;20969;-75
2021/10/06 01:07:48;;;;;;;13.00;11.17;;;;;;;15.34;73.13;100512.01;1687120;82;20955;-75
2021/10/06 01:10:14;;;;;;;12.40;11.07;;;;;;;15.28;73.23;100520.90;1689561;83;21001;-75
2021/10/06 01:12:41;;;;;;;11.85;10.75;;;;;;;15.23;73.34;100530.64;1696305;83;21155;-75
2021/10/06 01:15:12;;;;;;;11.55;10.55;;;;;;;15.18;73.30;100530.80;1695536;83;21126;-75
2021/10/06 01:17:38;;;;;;;12.50;10.98;;;;;;;15.14;73.42;100540.09;1705890;83;21147;-75
2021/10/06 01:20:08;;;;;;;11.57;10.48;;;;;;;15.12;73.45;100545.34;1706859;83;26551;-75
2021/10/06 01:25:04;;;;;;;12.30;11.33;;;;;;;15.11;73.56;100541.50;1853277;76;22616;-76
2021/10/06 01:27:37;;;;;;;11.65;10.65;;;;;;;15.04;73.62;100542.20;1825516;77;20894;-76
2021/10/06 01:30:08;;;;;;;11.33;10.38;;;;;;;15.02;73.85;100543.16;1815355;77;20846;-76
2021/10/06 01:32:37;;;;;;;10.95;10.05;;;;;;;15.02;73.85;100543.16;1830763;77;20896;-76
2021/10/06 01:35:07;;;;;;;11.12;10.23;;;;;;;15.02;73.79;100550.97;1797592;77;20925;-76
2021/10/06 01:37:35;;;;;;;11.03;10.03;;;;;;;15.02;73.81;100549.66;1821436;77;21675;-76
2021/10/06 01:40:05;;;;;;;10.93;10.03;;;;;;;14.99;73.84;100544.11;1825361;77;20892;-76
2021/10/06 01:42:31;;;;;;;11.33;10.18;;;;;;;14.99;73.88;100554.53;1824458;77;20983;-75
2021/10/06 01:44:57;;;;;;;11.93;11.03;;;;;;;14.97;73.88;100562.00;1790002;78;21002;-75
2021/10/06 01:47:25;;;;;;;12.13;11.03;;;;;;;14.96;74.02;100557.23;1776243;78;20985;-75
2021/10/06 01:49:53;;;;;;;11.35;10.25;;;;;;;14.97;74.05;100559.39;1770210;80;21036;-75
2021/10/06 01:52:23;;;;;;;11.08;10.23;;;;;;;14.97;74.03;100560.70;1762759;79;21484;-75
2021/10/06 01:54:50;;;;;;;11.63;10.53;;;;;;;14.95;74.08;100548.18;1757908;80;20967;-75
2021/10/06 01:57:17;;;;;;;12.82;10.90;;;;;;;14.93;74.11;100544.33;1761288;79;21497;-75
2021/10/06 01:59:46;;;;;;;11.38;10.38;;;;;;;14.95;74.20;100549.48;1775261;80;21049;-75
2021/10/06 02:02:14;;;;;;;11.12;10.15;;;;;;;14.93;74.25;100549.98;1763734;79;21151;-75
2021/10/06 02:04:41;;;;;;;10.88;9.98;;;;;;;14.93;74.20;100550.84;1746700;79;21100;-75
2021/10/06 02:07:07;;;;;;;11.38;9.95;;;;;;;14.90;74.23;100547.03;1749263;81;21560;-75
2021/10/06 02:09:33;;;;;;;11.53;9.60;;;;;;;14.87;74.27;100548.44;1744545;79;20925;-75
2021/10/06 02:11:59;;;;;;;10.63;9.53;;;;;;;14.86;74.33;100558.01;1743239;81;21072;-75
2021/10/06 02:14:25;;;;;;;10.67;9.77;;;;;;;14.84;74.32;100548.55;1744831;81;21043;-75
2021/10/06 02:16:51;;;;;;;10.30;9.40;;;;;;;14.82;74.39;100542.55;1735403;79;20939;-75
2021/10/06 02:19:17;;;;;;;10.80;9.80;;;;;;;14.80;74.48;100530.89;1739907;79;20897;-75
2021/10/06 02:21:55;;;;;;;9.30;8.50;;;;;;;14.79;74.41;100536.14;1754403;81;21052;-75
2021/10/06 02:24:22;;;;;;;10.32;9.33;;;;;;;14.78;74.52;100533.98;1741393;81;20947;-75
2021/10/06 02:26:48;;;;;;;9.35;8.68;;;;;;;14.75;74.49;100536.70;1732766;81;21027;-75
2021/10/06 02:29:14;;;;;;;10.47;9.27;;;;;;;14.72;74.59;100539.86;1754661;81;21048;-75
2021/10/06 02:31:40;;;;;;;10.00;9.07;;;;;;;14.73;74.51;100541.11;1742672;79;20998;-75
2021/10/06 02:34:06;;;;;;;9.87;9.07;;;;;;;14.73;74.51;100541.11;1732673;79;21418;-75
2021/10/06 02:36:32;;;;;;;10.57;9.53;;;;;;;14.73;74.71;100539.80;1749586;81;21044;-75
2021/10/06 02:38:58;;;;;;;9.97;9.00;;;;;;;14.72;74.76;100536.80;1721861;81;20960;-75
2021/10/06 02:41:25;;;;;;;9.75;8.43;;;;;;;14.72;74.74;100549.81;1750653;79;21528;-75
2021/10/06 02:43:51;;;;;;;9.48;8.55;;;;;;;14.71;74.77;100558.53;1732565;81;21096;-75
2021/10/06 02:46:23;;;;;;;9.13;8.43;;;;;;;14.71;74.83;100555.08;1746494;79;21045;-75
2021/10/06 02:48:49;;;;;;;10.53;9.60;;;;;;;14.71;74.90;100563.73;1732040;81;20929;-76
2021/10/06 02:51:15;;;;;;;9.47;8.67;;;;;;;14.73;74.92;100564.98;1737286;79;21613;-75
2021/10/06 02:53:41;;;;;;;9.28;8.48;;;;;;;14.72;74.95;100571.09;1723022;81;21115;-75
2021/10/06 02:56:07;;;;;;;8.80;8.10;;;;;;;14.71;74.97;100568.09;1744150;79;21066;-75
2021/10/06 02:58:33;;;;;;;8.27;7.63;;;;;;;14.70;74.97;100571.59;1713353;81;20944;-75
2021/10/06 03:00:59;;;;;;;;;;;;;;;14.68;74.99;100572.09;1743799;79;21024;-75
2021/10/06 03:03:25;;;;;;;9.07;7.93;;;;;;;14.66;75.34;100576.05;1748240;81;20212;-75
2021/10/06 03:05:52;;;;;;;9.00;8.23;;;;;;;14.62;75.05;100578.35;1715893;81;20968;-75
2021/10/06 03:08:18;;;;;;;8.70;8.00;;;;;;;14.61;75.11;100596.17;1753914;81;21448;-75
2021/10/06 03:10:44;;;;;;;9.17;8.37;;;;;;;14.58;75.16;100599.72;1738797;79;20956;-75
2021/10/06 03:13:10;;;;;;;9.43;8.63;;;;;;;14.58;75.18;100599.72;1738454;79;21516;-75
2021/10/06 03:15:36;;;;;;;8.87;8.07;;;;;;;14.57;75.23;100596.72;1742626;81;20853;-75
2021/10/06 03:18:05;;;;;;;9.18;8.48;;;;;;;14.56;75.21;100590.27;1731521;81;21075;-75
2021/10/06 03:20:31;;;;;;;9.77;7.80;;;;;;;14.56;75.29;100585.06;1712639;81;21633;-75
2021/10/06 03:22:57;;;;;;;8.53;7.73;;;;;;;14.57;75.34;100591.97;1756690;81;21040;-75
2021/10/06 03:25:23;;;;;;;10.70;8.53;;;;;;;14.56;75.31;100592.41;1739066;81;21048;-75
2021/10/06 03:27:49;;;;;;;9.23;8.28;;;;;;;14.56;75.35;100588.97;1753160;81;20968;-75
2021/10/06 03:30:16;;;;;;;8.95;8.15;;;;;;;14.56;75.38;100596.77;1747736;81;21047;-75
2021/10/06 03:32:42;;;;;;;8.40;7.60;;;;;;;14.42;75.47;100585.53;1751387;78;20907;-75
2021/10/06 03:35:08;;;;;;;9.03;8.33;;;;;;;14.42;75.47;100585.53;1761328;78;20936;-75
2021/10/06 03:37:36;;;;;;;8.30;7.50;;;;;;;14.52;75.44;100609.06;1760398;79;21074;-75
2021/10/06 03:40:08;;;;;;;8.13;7.50;;;;;;;14.52;75.47;100614.71;1740080;79;20964;-75
2021/10/06 03:42:37;;;;;;;8.43;7.83;;;;;;;14.52;75.50;100619.92;1748684;81;21039;-75
2021/10/06 03:45:06;;;;;;;9.25;8.10;;;;;;;14.51;75.56;100621.67;1757496;80;21522;-75
2021/10/06 03:47:51;;;;;;;8.48;7.87;;;;;;;14.51;75.59;100622.97;1747057;78;21016;-75
2021/10/06 03:50:18;;;;;;;9.23;7.80;;;;;;;14.52;75.60;100622.07;1763259;80;21306;-75
2021/10/06 03:52:45;;;;;;;8.90;8.20;;;;;;;14.52;75.64;100618.62;1720931;80;21371;-75
2021/10/06 03:55:11;;;;;;;;;;;;;;;14.35;75.63;100588.35;1761212;78;21120;-75
2021/10/06 03:57:37;;;;;;;9.05;7.90;;;;;;;14.51;75.98;100624.27;1746838;80;20174;-75
2021/10/06 04:00:06;;;;;;;9.17;8.27;;;;;;;14.51;75.73;100629.92;1743140;80;21468;-75
2021/10/06 04:02:33;;;;;;;9.93;9.08;;;;;;;14.52;75.73;100627.72;1722530;81;21253;-75
2021/10/06 04:04:59;;;;;;;9.95;8.88;;;;;;;14.51;75.74;100628.17;1753719;79;20996;-75
2021/10/06 04:07:27;;;;;;;10.08;9.28;;;;;;;14.48;75.79;100632.63;1746361;81;21503;-75
2021/10/06 04:09:53;;;;;;;10.98;10.00;;;;;;;14.48;75.82;100631.33;1758926;80;21059;-75
2021/10/06 04:12:19;;;;;;;9.63;8.73;;;;;;;14.48;75.83;100628.72;1752135;80;21047;-75
2021/10/06 04:14:45;;;;;;;9.43;8.58;;;;;;;14.45;75.83;100628.37;1747967;81;21520;-75
2021/10/06 04:17:11;;;;;;;10.82;9.93;;;;;;;14.44;75.86;100625.81;1743351;80;20961;-74
2021/10/06 04:19:37;;;;;;;10.70;9.70;;;;;;;14.40;75.85;100625.48;1763885;78;21670;-74
2021/10/06 04:22:03;;;;;;;12.27;11.17;;;;;;;14.39;75.98;100628.53;1740311;81;20973;-74
2021/10/06 04:24:29;;;;;;;11.33;10.30;;;;;;;14.39;75.99;100625.08;1738948;80;21441;-75
2021/10/06 04:26:55;;;;;;;12.30;11.25;;;;;;;14.37;75.97;100627.72;1608454;81;7002975;-73
2021/10/06 04:29:21;;;;;;;13.57;10.77;;;;;;;14.39;76.11;100639.38;1686367;83;20989;-73
2021/10/06 04:31:59;;;;;;;11.08;10.18;;;;;;;14.41;76.10;100658.40;1690168;83;21448;-73
2021/10/06 04:34:25;;;;;;;13.73;11.17;;;;;;;14.40;76.13;100654.09;1669750;83;21618;-73
2021/10/06 04:36:51;;;;;;;11.83;10.33;;;;;;;14.40;76.16;100662.75;1674384;83;21032;-73
2021/10/06 04:39:21;;;;;;;11.95;10.70;;;;;;;14.41;76.14;100670.11;1677494;83;21106;-73
2021/10/06 04:41:47;;;;;;;13.65;12.07;;;;;;;14.40;76.24;100669.25;1672818;83;21004;-73
2021/10/06 04:44:17;;;;;;;12.88;11.53;;;;;;;14.42;76.27;100676.59;1686428;83;21096;-73
2021/10/06 04:46:43;;;;;;;14.95;12.25;;;;;;;14.44;76.27;100681.75;1683669;83;21688;-73
2021/10/06 04:49:09;;;;;;;13.67;12.07;;;;;;;14.45;76.32;100682.16;1685103;83;21648;-73
2021/10/06 04:51:35;;;;;;;12.20;11.07;;;;;;;14.46;76.34;100686.02;1669779;83;20917;-73
2021/10/06 04:54:01;;;;;;;13.37;11.57;;;;;;;14.47;76.34;100687.71;1678872;83;21036;-73
2021/10/06 04:56:45;;;;;;;15.43;11.30;;;;;;;14.47;76.35;100685.56;1670491;82;21581;-73
2021/10/06 04:59:11;;;;;;;13.00;11.90;;;;;;;14.48;76.40;100686.81;1742224;80;20959;-73
2021/10/06 05:01:37;;;;;;;12.63;11.53;;;;;;;14.49;76.42;100687.22;1750447;80;21676;-73
2021/10/06 05:04:03;;;;;;;13.20;12.00;;;;;;;14.49;76.45;100688.52;1740433;80;20959;-73
2021/10/06 05:06:29;;;;;;;20.43;11.57;;;;;;;14.49;76.47;100692.42;1741337;80;21054;-73
2021/10/06 05:08:57;;;;;;;11.43;10.37;;;;;;;14.49;76.47;100692.42;1733133;80;26525;-73
2021/10/06 05:11:24;;;;;;;13.18;11.12;;;;;;;14.48;76.48;100692.02;1719643;80;21010;-73
2021/10/06 05:13:52;;;;;;;13.80;11.05;;;;;;;14.46;76.52;100695.11;1730996;80;21512;-73
2021/10/06 05:16:18;;;;;;;12.20;11.05;;;;;;;14.46;76.57;100695.11;1746611;80;21660;-73
2021/10/06 05:18:44;;;;;;;12.20;11.05;;;;;;;14.45;76.56;100690.81;1731734;80;21499;-73
2021/10/06 05:21:10;;;;;;;20.03;12.60;;;;;;;14.45;76.59;100699.91;1729559;80;21073;-73
2021/10/06 05:23:36;;;;;;;15.17;11.63;;;;;;;14.45;76.67;100703.81;1678440;84;21803;-73
2021/10/06 05:26:03;;;;;;;14.18;11.50;;;;;;;14.44;76.62;100715.58;1668210;83;21510;-73
2021/10/06 05:28:29;;;;;;;12.78;11.28;;;;;;;14.42;76.68;100716.92;1675744;83;21536;-73
2021/10/06 05:30:55;;;;;;;13.33;12.07;;;;;;;14.42;76.72;100720.83;1681169;84;21053;-73
2021/10/06 05:33:24;;;;;;;12.20;11.00;;;;;;;14.41;76.73;100727.34;1655651;84;21547;-73
2021/10/06 05:35:50;;;;;;;13.13;11.83;;;;;;;14.40;76.71;100732.98;1654490;84;21415;-73
2021/10/06 05:38:16;;;;;;;13.33;11.93;;;;;;;14.41;76.81;100741.23;1695821;83;21591;-73
2021/10/06 05:40:42;;;;;;;13.05;11.83;;;;;;;14.42;76.81;100741.64;1675958;82;21901;-73
2021/10/06 05:43:13;;;;;;;16.80;12.20;;;;;;;14.41;76.80;100742.53;1697605;83;21001;-73
2021/10/06 05:45:40;;;;;;;12.85;11.60;;;;;;;14.42;76.89;100749.44;1663805;84;21627;-73
2021/10/06 05:48:07;;;;;;;12.82;11.57;;;;;;;14.43;76.90;100744.64;1663533;84;21635;-73
2021/10/06 05:50:34;;;;;;;;;;;;;;;14.44;76.88;100746.34;1696039;83;21576;-73
2021/10/06 05:53:03;;;;;;;11.93;10.80;;;;;;;14.45;77.18;100747.20;1684964;83;20188;-73
2021/10/06 05:55:29;;;;;;;14.63;11.55;;;;;;;14.46;76.96;100751.50;1685560;84;21547;-73
2021/10/06 05:57:55;;;;;;;13.68;12.45;;;;;;;14.46;76.97;100741.09;1656247;85;21687;-73
2021/10/06 06:00:22;;;;;;;13.38;11.55;;;;;;;14.46;77.00;100745.85;1675288;84;21489;-73
2021/10/06 06:02:48;;;;;;;12.63;11.55;;;;;;;14.47;77.02;100750.16;1684022;83;21476;-73
2021/10/06 06:05:16;;;;;;;13.30;11.25;;;;;;;14.48;77.04;100757.06;1661701;84;21529;-73
2021/10/06 06:07:43;;;;;;;13.68;12.28;;;;;;;14.48;77.03;100760.97;1685183;83;21399;-73
2021/10/06 06:10:11;;;;;;;13.62;12.23;;;;;;;14.50;77.04;100758.32;1660670;84;20969;-73
2021/10/06 06:12:37;;;;;;;13.15;11.85;;;;;;;14.50;77.08;100765.67;1697742;83;21565;-73
2021/10/06 06:15:05;;;;;;;14.47;12.60;;;;;;;14.51;77.10;100757.42;1663694;84;21561;-73
2021/10/06 06:17:37;;;;;;;13.60;12.18;;;;;;;14.51;77.15;100765.23;1678786;83;20938;-73
2021/10/06 06:20:00;;;;;;;13.58;12.28;;;;;;;14.51;77.11;100769.98;1675874;83;21072;-73
2021/10/06 06:22:26;;;;;;;13.93;11.57;;;;;;;14.50;77.19;100770.88;1694343;83;20902;-73
2021/10/06 06:24:52;;;;;;;13.53;12.13;;;;;;;14.50;77.21;100774.78;1679771;83;20998;-73
2021/10/06 06:27:18;;;;;;;13.67;12.27;;;;;;;14.50;77.22;100779.98;1661775;85;21592;-73
2021/10/06 06:29:46;;;;;;;14.45;11.95;;;;;;;14.50;77.28;100783.89;1671011;85;21550;-73
2021/10/06 06:32:11;;;;;;;13.60;12.40;;;;;;;14.49;77.28;100785.23;1673041;83;20953;-73
2021/10/06 06:34:37;;;;;;;12.67;11.57;;;;;;;14.49;77.32;100789.14;1668249;84;20949;-73
2021/10/06 06:37:04;;;;;;;14.55;13.08;;;;;;;14.50;77.37;100789.09;1676499;84;20997;-73
2021/10/06 06:39:30;;;;;;;14.33;12.82;;;;;;;14.51;77.35;100797.31;1674562;84;20944;-73
2021/10/06 06:41:58;;;;;;;13.32;12.03;;;;;;;14.51;77.40;100799.06;1676513;85;21520;-73
2021/10/06 06:44:24;;;;;;;12.47;11.18;;;;;;;14.52;77.38;100803.36;1661775;85;21151;-73
2021/10/06 06:46:50;;;;;;;15.30;13.27;;;;;;;14.54;77.48;100810.67;1672997;85;25518;-73
2021/10/06 06:49:17;;;;;;;13.47;12.17;;;;;;;14.56;77.42;100808.41;1672242;84;21612;-73
2021/10/06 06:51:42;;;;;;;13.70;12.40;;;;;;;14.57;77.44;100808.81;1666144;85;21060;-73
2021/10/06 06:54:13;;;;;;;13.72;12.25;;;;;;;14.58;77.48;100813.56;1656343;85;21113;-73
2021/10/06 06:56:39;;;;;;;13.98;12.60;;;;;;;14.61;77.60;100806.97;1671189;85;21012;-73
2021/10/06 06:59:10;;;;;;;18.17;13.10;;;;;;;14.65;77.61;100810.34;1667589;85;21041;-73
2021/10/06 07:01:37;;;;;;;13.05;11.68;;;;;;;14.68;77.60;100807.64;1665680;83;20962;-73
2021/10/06 07:04:03;;;;;;;14.00;12.60;;;;;;;14.71;77.56;100816.66;1673519;83;20882;-73
2021/10/06 07:06:34;;;;;;;13.58;12.28;;;;;;;14.74;77.61;100820.47;1650116;85;20917;-73
2021/10/06 07:08:58;;;;;;;13.70;12.43;;;;;;;14.77;77.66;100831.65;1666534;85;20890;-73
2021/10/06 07:11:23;;;;;;;14.30;12.77;;;;;;;14.80;77.64;100838.06;1644764;85;20949;-73
2021/10/06 07:13:49;;;;;;;14.37;11.67;;;;;;;14.82;77.64;100845.83;1663613;85;20993;-73
2021/10/06 07:16:15;;;;;;;14.73;13.33;;;;;;;14.83;77.66;100847.54;1657909;85;20938;-73
2021/10/06 07:18:41;;;;;;;14.67;13.17;;;;;;;14.82;77.69;100853.64;1651794;85;20915;-73
2021/10/06 07:21:07;;;;;;;14.73;13.23;;;;;;;14.85;77.76;100857.45;1636499;86;21967;-73
2021/10/06 07:23:33;;;;;;;14.70;13.13;;;;;;;14.87;77.76;100860.42;1663177;85;20956;-73
2021/10/06 07:25:59;;;;;;;16.75;13.65;;;;;;;14.89;77.81;100859.92;1680763;84;20873;-73
2021/10/06 07:28:26;;;;;;;15.43;13.93;;;;;;;14.91;77.76;100866.39;1693859;83;26836;-73
2021/10/06 07:30:53;;;;;;;14.73;13.33;;;;;;;14.94;77.86;100866.75;1693737;83;20942;-73
2021/10/06 07:33:19;;;;;;;17.40;14.75;;;;;;;14.98;77.88;100870.97;1696669;83;26286;-73
2021/10/06 07:35:45;;;;;;;17.12;14.10;;;;;;;15.05;77.98;100874.64;1692863;83;21272;-73
2021/10/06 07:38:12;;;;;;;15.27;13.67;;;;;;;15.12;77.94;100877.43;1693067;83;20922;-73
2021/10/06 07:40:38;;;;;;;13.98;12.73;;;;;;;;;;1685992;83;20970;-73
2021/10/06 07:43:04;;;;;;;16.03;13.43;;;;;;;15.21;78.00;100888.88;1679029;84;20961;-73
2021/10/06 07:45:30;;;;;;;14.30;12.90;;;;;;;15.24;77.98;100890.53;1689689;83;20913;-73
2021/10/06 07:47:57;;;;;;;15.80;13.80;;;;;;;15.28;78.04;100893.45;1674106;83;21320;-73
2021/10/06 07:50:24;;;;;;;14.55;13.13;;;;;;;15.32;78.03;100887.24;1665482;84;28065;-73
2021/10/06 07:52:50;;;;;;;16.12;12.40;;;;;;;15.36;78.02;100884.95;1666265;84;20918;-73
2021/10/06 07:55:17;;;;;;;25.83;14.70;;;;;;;15.37;78.01;100884.50;1674745;84;20938;-73
2021/10/06 07:57:44;;;;;;;15.05;13.48;;;;;;;15.40;78.02;100884.40;1678960;84;20927;-73
2021/10/06 08:00:12;;;;;;;16.50;12.50;;;;;;;15.43;78.08;100889.52;1664065;84;20986;-73
2021/10/06 08:02:38;;;;;;;14.05;12.60;;;;;;;15.48;78.05;100901.50;1665678;84;21062;-73
2021/10/06 08:05:05;;;;;;;14.93;12.40;;;;;;;15.54;78.10;100901.31;1677743;83;21076;-73
2021/10/06 08:07:31;;;;;;;15.28;13.78;;;;;;;15.64;78.17;100903.17;1691777;83;21045;-73
2021/10/06 08:09:58;;;;;;;15.17;13.77;;;;;;;15.75;78.14;100901.52;1682974;84;21083;-73
2021/10/06 08:12:24;;;;;;;13.98;12.58;;;;;;;15.84;78.18;100909.05;1661348;84;21797;-73
2021/10/06 08:14:51;;;;;;;15.25;12.88;;;;;;;15.95;78.22;100902.17;1686339;83;20952;-73
2021/10/06 08:17:17;;;;;;;15.10;12.10;;;;;;;16.05;78.22;100908.78;1655025;84;21157;-73
2021/10/06 08:19:43;;;;;;;12.28;11.25;;;;;;;16.14;78.19;100909.75;1668560;84;21850;-73
2021/10/06 08:22:11;;;;;;;18.05;13.88;;;;;;;16.19;78.13;100906.08;1689354;83;21065;-73
2021/10/06 08:24:38;;;;;;;14.07;12.63;;;;;;;16.24;78.15;100909.83;1693812;83;21124;-73
2021/10/06 08:27:05;;;;;;;12.30;11.10;;;;;;;16.30;78.13;100910.92;1677720;83;21025;-73
2021/10/06 08:29:31;;;;;;;;;;;;;;;;;;1695703;83;21072;-73
2021/10/06 08:31:57;;;;;;;13.03;10.73;;;;;;;16.36;78.12;100916.38;1693815;83;20474;-73
2021/10/06 08:34:23;;;;;;;12.37;11.03;;;;;;;16.38;78.16;100921.95;1665429;83;421244;-73
2021/10/06 08:36:50;;;;;;;16.67;10.67;;;;;;;16.38;78.05;100917.19;1680684;83;21053;-73
2021/10/06 08:39:16;;;;;;;13.33;11.63;;;;;;;16.37;78.11;100930.69;1710182;81;21057;-73
2021/10/06 08:41:45;;;;;;;13.60;10.58;;;;;;;16.38;78.07;100933.70;1708624;81;21050;-73
2021/10/06 08:44:12;;;;;;;11.12;9.38;;;;;;;16.36;78.09;100932.90;1706125;82;21014;-73
2021/10/06 08:46:38;;;;;;;12.50;10.33;;;;;;;16.34;78.07;100930.80;1713631;82;21051;-73
2021/10/06 08:49:06;;;;;;;11.43;10.32;;;;;;;16.32;78.03;100939.13;1707904;83;21335;-73
2021/10/06 08:51:32;;;;;;;11.65;10.08;;;;;;;16.31;78.04;100932.20;1696658;82;20977;-73
2021/10/06 08:53:58;;;;;;;12.30;11.07;;;;;;;16.30;78.08;100940.94;1716247;81;21595;-73
2021/10/06 08:56:30;;;;;;;15.65;11.50;;;;;;;16.32;78.15;100939.13;1701473;82;21790;-72
2021/10/06 08:58:57;;;;;;;14.27;11.07;;;;;;;16.36;78.16;100939.88;1716527;81;21058;-72
2021/10/06 09:01:28;;;;;;;12.13;11.03;;;;;;;16.39;78.11;100942.37;1710034;81;21133;-72
2021/10/06 09:04:03;;;;;;;11.68;10.48;;;;;;;16.43;78.14;100942.67;1703085;82;20922;-72
2021/10/06 09:06:42;;;;;;;11.40;10.40;;;;;;;16.47;78.14;100947.73;1708660;82;20954;-72
2021/10/06 09:09:26;;;;;;;12.03;9.48;;;;;;;16.51;78.12;100948.03;1712319;82;20929;-72
2021/10/06 09:11:54;;;;;;;12.70;9.93;;;;;;;16.57;78.09;100956.09;1707767;82;20970;-72
2021/10/06 09:14:22;;;;;;;13.15;10.95;;;;;;;16.63;78.10;100944.59;1694261;83;20999;-72
2021/10/06 09:17:10;;;;;;;12.55;11.30;;;;;;;16.72;78.16;100954.70;1710617;82;20971;-72
2021/10/06 09:19:46;;;;;;;13.90;11.35;;;;;;;16.77;78.09;100949.71;1724072;82;20949;-72
2021/10/06 09:22:30;;;;;;;11.28;10.18;;;;;;;16.84;78.10;100955.56;1716500;81;21419;-73
2021/10/06 09:24:59;;;;;;;11.73;10.53;;;;;;;;;;1716613;82;20931;-72
2021/10/06 09:27:30;;;;;;;12.10;10.98;;;;;;;16.95;78.03;100961.25;1713715;81;20931;-72
2021/10/06 09:30:00;;;;;;;14.03;11.20;;;;;;;16.99;78.07;100958.93;1712107;81;20927;-72
2021/10/06 09:32:40;;;;;;;11.53;10.63;;;;;;;17.05;78.02;100964.38;1724984;81;21260;-72
2021/10/06 09:35:14;;;;;;;11.97;10.72;;;;;;;17.06;78.01;100972.16;1714662;81;21082;-72
2021/10/06 09:37:48;;;;;;;11.10;10.15;;;;;;;17.11;78.07;100970.69;1707238;83;21512;-72
2021/10/06 09:40:18;;;;;;;10.98;9.88;;;;;;;17.11;77.97;100966.31;1713669;82;21129;-72
2021/10/06 09:42:49;;;;;;;10.58;9.58;;;;;;;17.14;77.94;100970.58;1678606;83;21915;-72
2021/10/06 09:45:34;;;;;;;11.57;10.40;;;;;;;17.18;77.96;100982.13;1682200;84;21013;-72
2021/10/06 09:48:11;;;;;;;12.68;10.20;;;;;;;17.24;77.95;100979.74;1670754;84;21505;-72
2021/10/06 09:50:47;;;;;;;11.40;9.83;;;;;;;17.35;77.97;100981.95;1694914;83;21151;-72
2021/10/06 09:53:18;;;;;;;10.83;9.77;;;;;;;17.39;77.84;100994.84;1692664;84;20995;-72
2021/10/06 09:55:50;;;;;;;11.45;10.60;;;;;;;17.43;77.86;100994.28;1707212;83;21679;-72
2021/10/06 09:58:19;;;;;;;13.80;10.35;;;;;;;17.46;77.78;100991.55;1727547;81;21063;-72
2021/10/06 10:00:48;;;;;;;10.70;9.65;;;;;;;17.49;77.80;100985.75;1722769;81;21103;-72
2021/10/06 10:03:15;;;;;;;10.78;9.98;;;;;;;17.52;77.74;100993.92;1704141;82;21064;-72
2021/10/06 10:05:41;;;;;;;11.10;10.08;;;;;;;17.55;77.68;100993.81;1706196;82;21095;-73
2021/10/06 10:08:09;;;;;;;11.30;10.30;;;;;;;17.57;77.63;101003.75;1712554;81;21673;-73
2021/10/06 10:10:39;;;;;;;10.80;9.90;;;;;;;17.56;77.61;101000.74;1678774;83;21152;-72
2021/10/06 10:13:06;;;;;;;10.43;9.63;;;;;;;17.57;77.58;101004.21;1689985;83;21055;-73
2021/10/06 10:15:33;;;;;;;10.10;9.38;;;;;;;17.59;77.61;101007.16;1689218;83;22213;-73
2021/10/06 10:18:03;;;;;;;10.05;9.28;;;;;;;17.60;77.56;101005.40;1683960;83;21106;-73
2021/10/06 10:20:33;;;;;;;11.10;10.20;;;;;;;17.66;77.61;101013.89;1680252;83;20985;-72
2021/10/06 10:23:06;;;;;;;9.70;8.90;;;;;;;17.69;77.51;101020.73;1704152;82;24746;-72
2021/10/06 10:25:43;;;;;;;10.72;9.85;;;;;;;17.69;77.47;101030.74;1726135;81;20919;-72
2021/10/06 10:28:18;;;;;;;10.25;9.43;;;;;;;17.65;77.36;101028.30;1696027;82;20901;-72
2021/10/06 10:31:02;;;;;;;10.88;10.00;;;;;;;17.58;77.35;101036.84;1710086;81;21905;-72
2021/10/06 10:33:45;;;;;;;10.75;9.65;;;;;;;17.56;77.37;101036.50;1720490;81;21335;-72
2021/10/06 10:36:37;;;;;;;13.05;9.63;;;;;;;17.52;77.38;101044.46;1720311;81;21128;-72
2021/10/06 10:39:42;;;;;;;10.25;9.43;;;;;;;17.52;77.29;101041.00;1702257;81;21320;-72
2021/10/06 10:42:10;;;;;;;10.58;9.58;;;;;;;17.50;77.30;101048.05;1719742;81;21145;-72
2021/10/06 10:44:38;;;;;;;10.38;9.48;;;;;;;17.48;77.20;101047.25;1714694;81;21606;-72
2021/10/06 10:47:07;;;;;;;8.83;8.20;;;;;;;17.44;77.21;101053.50;1723714;81;21010;-72
2021/10/06 10:49:47;;;;;;;9.43;8.63;;;;;;;17.43;77.23;101055.72;1741106;81;21355;-72
2021/10/06 10:52:16;;;;;;;10.95;9.95;;;;;;;17.42;77.19;101059.24;1716921;81;21487;-72
2021/10/06 10:54:47;;;;;;;9.18;8.53;;;;;;;17.35;77.05;101053.38;1719804;81;21101;-72
2021/10/06 10:57:22;;;;;;;9.83;8.65;;;;;;;17.33;77.16;101066.97;1722748;81;21510;-72
2021/10/06 10:59:52;;;;;;;10.72;8.70;;;;;;;17.34;77.19;101066.51;1719171;81;21438;-72
2021/10/06 11:02:34;;;;;;;9.78;8.98;;;;;;;17.32;77.11;101074.86;1717939;81;21336;-72
2021/10/06 11:05:07;;;;;;;9.63;8.83;;;;;;;17.27;77.04;101079.41;1718794;81;20936;-72
2021/10/06 11:07:53;;;;;;;9.70;8.90;;;;;;;17.22;77.05;101079.56;1732738;81;20988;-72
2021/10/06 11:10:26;;;;;;;9.03;8.23;;;;;;;17.16;77.00;101087.63;1723858;81;21522;-72
2021/10/06 11:13:05;;;;;;;8.73;7.87;;;;;;;17.12;76.99;101088.67;1721048;81;21036;-72
2021/10/06 11:15:33;;;;;;;8.33;7.55;;;;;;;17.10;77.01;101087.87;1732644;81;21410;-72
2021/10/06 11:18:21;;;;;;;7.85;7.25;;;;;;;17.10;77.00;101090.48;1722505;81;21053;-72
2021/10/06 11:20:58;;;;;;;12.50;7.28;;;;;;;17.09;76.97;101094.01;1718474;81;21060;-72
2021/10/06 11:23:40;;;;;;;8.35;7.00;;;;;;;17.07;76.91;101094.06;1715215;81;21512;-72
2021/10/06 11:26:14;;;;;;;7.62;6.85;;;;;;;17.04;76.89;101101.16;1722284;81;20922;-72